createdAt,value
2023-04-02T00:01:57.741Z,6.76
2023-04-02T00:06:01.613Z,6.94
2023-04-02T00:09:37.269Z,7.06
2023-04-02T00:13:10.461Z,7.08
2023-04-02T00:16:27.453Z,7.16
2023-04-02T00:20:08.160Z,7.11
2023-04-02T00:23:46.619Z,7.05
2023-04-02T00:27:20.896Z,7.08
2023-04-02T00:31:00.305Z,7.13
2023-04-02T00:34:55.461Z,7.19
2023-04-02T00:38:22.586Z,7.17
2023-04-02T00:42:12.238Z,7.15
2023-04-02T00:45:33.496Z,7.06
2023-04-02T00:49:15.364Z,6.95
2023-04-02T00:52:47.300Z,6.86
2023-04-02T00:56:43.725Z,6.77
2023-04-02T01:00:21.914Z,6.71
2023-04-02T01:03:38.009Z,6.63
2023-04-02T01:07:54.397Z,6.60
2023-04-02T01:11:07.516Z,6.56
2023-04-02T01:14:36.556Z,6.52
2023-04-02T01:18:51.347Z,6.49
2023-04-02T01:21:57.613Z,6.48
2023-04-02T01:26:13.031Z,6.47
2023-04-02T01:29:25.757Z,6.49
2023-04-02T01:32:54.568Z,6.50
2023-04-02T01:37:22.032Z,6.49
2023-04-02T01:41:08.169Z,6.48
2023-04-02T01:44:24.066Z,6.44
2023-04-02T01:47:51.389Z,6.39
2023-04-02T01:51:52.350Z,6.33
2023-04-02T01:55:06.592Z,6.26
2023-04-02T01:58:42.233Z,6.23
2023-04-02T02:02:21.955Z,6.20
2023-04-02T02:05:58.569Z,6.15
2023-04-02T02:09:54.639Z,6.14
2023-04-02T02:13:16.737Z,6.11
2023-04-02T02:16:53.563Z,6.09
2023-04-02T02:20:29.193Z,6.08
2023-04-02T02:24:17.146Z,6.05
2023-04-02T02:27:46.409Z,6.05
2023-04-02T02:31:33.330Z,6.01
2023-04-02T02:35:08.073Z,5.96
2023-04-02T02:38:48.304Z,5.91
2023-04-02T02:42:24.327Z,5.87
2023-04-02T02:45:55.732Z,5.85
2023-04-02T02:49:40.853Z,5.86
2023-04-02T02:53:17.893Z,5.86
2023-04-02T02:56:54.344Z,5.85
2023-04-02T03:00:27.923Z,5.86
2023-04-02T03:04:01.119Z,5.81
2023-04-02T03:07:38.349Z,5.76
2023-04-02T03:11:55.587Z,5.67
2023-04-02T03:15:31.665Z,5.62
2023-04-02T03:18:55.931Z,5.60
2023-04-02T03:22:54.372Z,5.57
2023-04-02T03:26:24.961Z,5.53
2023-04-02T03:29:40.435Z,5.50
2023-04-02T03:33:43.188Z,5.47
2023-04-02T03:37:05.331Z,5.41
2023-04-02T03:40:59.729Z,5.39
2023-04-02T03:44:19.542Z,5.37
2023-04-02T03:47:47.981Z,5.34
2023-04-02T03:51:30.680Z,5.30
2023-04-02T03:55:02.409Z,5.26
2023-04-02T03:58:47.730Z,5.26
2023-04-02T04:02:26.843Z,5.24
2023-04-02T04:06:06.066Z,5.20
2023-04-02T04:09:33.587Z,5.17
2023-04-02T04:13:18.544Z,5.10
2023-04-02T04:16:54.196Z,5.06
2023-04-02T04:20:36.654Z,5.05
2023-04-02T04:24:23.344Z,5.01
2023-04-02T04:27:39.892Z,5.00
2023-04-02T04:31:26.832Z,4.95
2023-04-02T04:35:01.122Z,4.93
2023-04-02T04:38:39.389Z,4.90
2023-04-02T04:42:19.618Z,4.90
2023-04-02T04:46:03.821Z,4.88
2023-04-02T04:49:56.169Z,4.76
2023-04-02T04:53:13.841Z,4.69
2023-04-02T04:56:42.335Z,4.60
2023-04-02T05:00:29.158Z,4.53
2023-04-02T05:04:22.744Z,4.46
2023-04-02T05:07:43.106Z,4.43
2023-04-02T05:11:22.233Z,4.42
2023-04-02T05:15:02.524Z,4.37
2023-04-02T05:18:52.482Z,4.32
2023-04-02T05:22:41.994Z,4.26
2023-04-02T05:25:59.841Z,4.20
2023-04-02T05:29:33.323Z,4.07
2023-04-02T05:33:08.083Z,3.94
2023-04-02T05:36:39.510Z,3.90
2023-04-02T05:40:51.757Z,3.87
2023-04-02T05:44:22.453Z,3.79
2023-04-02T05:47:35.952Z,3.77
2023-04-02T05:51:18.861Z,3.78
2023-04-02T05:54:58.384Z,3.72
2023-04-02T05:58:37.030Z,3.60
2023-04-02T06:02:25.558Z,3.49
2023-04-02T06:05:45.448Z,3.40
2023-04-02T06:09:53.359Z,3.37
2023-04-02T06:16:30.940Z,3.25
2023-04-02T06:20:06.810Z,3.02
2023-04-02T06:24:01.834Z,2.80
2023-04-02T06:27:28.316Z,2.71
2023-04-02T06:31:41.406Z,2.64
2023-04-02T06:35:07.452Z,2.52
2023-04-02T06:38:44.179Z,2.46
2023-04-02T06:42:30.428Z,2.38
2023-04-02T06:46:35.980Z,2.37
2023-04-02T06:50:47.220Z,2.36
2023-04-02T06:54:29.353Z,2.38
2023-04-02T06:58:17.284Z,2.44
2023-04-02T07:02:03.727Z,2.41
2023-04-02T07:05:29.647Z,2.39
2023-04-02T07:09:07.652Z,2.42
2023-04-02T07:12:45.045Z,2.42
2023-04-02T07:16:25.771Z,2.42
2023-04-02T07:20:00.319Z,2.44
2023-04-02T07:23:57.644Z,2.40
2023-04-02T07:27:39.819Z,2.36
2023-04-02T07:31:27.438Z,2.27
2023-04-02T07:34:50.252Z,2.13
2023-04-02T07:38:28.052Z,2.05
2023-04-02T07:42:05.554Z,1.90
2023-04-02T07:45:43.268Z,1.82
2023-04-02T07:49:39.866Z,1.80
2023-04-02T07:53:03.641Z,1.81
2023-04-02T07:56:40.422Z,1.78
2023-04-02T08:00:18.974Z,1.61
2023-04-02T08:04:22.051Z,1.52
2023-04-02T08:08:04.427Z,1.35
2023-04-02T08:11:29.676Z,1.24
2023-04-02T08:15:07.061Z,1.25
2023-04-02T08:19:02.155Z,1.31
2023-04-02T08:22:24.725Z,1.40
2023-04-02T08:26:03.319Z,1.53
2023-04-02T08:30:04.855Z,1.63
2023-04-02T08:33:30.106Z,1.71
2023-04-02T08:37:08.575Z,1.77
2023-04-02T08:40:45.958Z,1.83
2023-04-02T08:44:27.370Z,1.88
2023-04-02T08:47:59.915Z,1.96
2023-04-02T08:51:54.955Z,2.03
2023-04-02T08:55:20.091Z,2.08
2023-04-02T08:59:31.880Z,2.11
2023-04-02T09:03:30.727Z,2.21
2023-04-02T09:07:16.328Z,2.31
2023-04-02T09:10:52.716Z,2.38
2023-04-02T09:14:20.486Z,2.44
2023-04-02T09:18:11.596Z,2.49
2023-04-02T09:21:59.460Z,2.50
2023-04-02T09:25:54.281Z,2.54
2023-04-02T09:29:39.899Z,2.41
2023-04-02T09:33:09.068Z,2.45
2023-04-02T09:36:41.583Z,2.51
2023-04-02T09:40:44.875Z,2.53
2023-04-02T09:44:23.142Z,2.45
2023-04-02T09:47:47.710Z,2.45
2023-04-02T09:51:27.877Z,2.50
2023-04-02T09:55:27.590Z,2.58
2023-04-02T09:59:15.445Z,2.74
2023-04-02T10:02:41.423Z,2.76
2023-04-02T10:06:18.538Z,2.82
2023-04-02T10:10:00.355Z,2.93
2023-04-02T10:13:49.206Z,2.94
2023-04-02T10:17:23.252Z,2.79
2023-04-02T10:20:54.383Z,2.78
2023-04-02T10:24:29.231Z,2.89
2023-04-02T10:28:38.368Z,2.93
2023-04-02T10:32:39.024Z,3.06
2023-04-02T10:36:21.387Z,3.11
2023-04-02T10:39:59.708Z,3.02
2023-04-02T10:43:48.427Z,2.92
2023-04-02T10:47:27.244Z,2.88
2023-04-02T10:51:02.270Z,2.91
2023-04-02T10:54:59.941Z,2.91
2023-04-02T10:58:31.803Z,2.91
2023-04-02T11:02:06.914Z,2.93
2023-04-02T11:05:51.309Z,2.88
2023-04-02T11:09:24.925Z,2.86
2023-04-02T11:13:05.454Z,2.82
2023-04-02T11:16:35.132Z,2.86
2023-04-02T11:20:47.880Z,2.91
2023-04-02T11:24:33.559Z,3.07
2023-04-02T11:28:30.894Z,3.26
2023-04-02T11:32:15.634Z,3.36
2023-04-02T11:35:40.983Z,3.22
2023-04-02T11:39:56.797Z,3.11
2023-04-02T11:43:38.062Z,3.03
2023-04-02T11:47:34.898Z,2.97
2023-04-02T11:51:21.918Z,3.14
2023-04-02T11:54:44.576Z,3.36
2023-04-02T11:58:55.377Z,3.29
2023-04-02T12:02:56.015Z,3.11
2023-04-02T12:06:46.413Z,3.06
2023-04-02T12:10:33.720Z,3.19
2023-04-02T12:13:58.573Z,3.31
2023-04-02T12:17:40.612Z,3.45
2023-04-02T12:21:17.721Z,3.30
2023-04-02T12:25:20.127Z,3.11
2023-04-02T12:28:46.556Z,3.03
2023-04-02T12:32:31.011Z,2.92
2023-04-02T12:36:20.784Z,2.74
2023-04-02T12:39:54.339Z,2.66
2023-04-02T12:43:35.043Z,2.68
2023-04-02T12:47:02.436Z,2.70
2023-04-02T12:50:41.767Z,2.69
2023-04-02T12:54:45.575Z,2.57
2023-04-02T12:58:26.597Z,2.58
2023-04-02T13:02:04.484Z,2.58
2023-04-02T13:05:44.616Z,2.55
2023-04-02T13:09:28.707Z,2.45
2023-04-02T13:13:03.196Z,2.38
2023-04-02T13:16:37.279Z,2.35
2023-04-02T13:20:31.642Z,2.36
2023-04-02T13:24:19.615Z,2.34
2023-04-02T13:28:03.144Z,2.31
2023-04-02T13:31:28.567Z,2.30
2023-04-02T13:35:14.129Z,2.33
2023-04-02T13:38:42.135Z,2.29
2023-04-02T13:42:19.338Z,2.36
2023-04-02T13:45:59.895Z,2.35
2023-04-02T13:49:34.814Z,2.42
2023-04-02T13:53:30.102Z,2.53
2023-04-02T13:56:57.048Z,2.52
2023-04-02T14:00:32.671Z,2.52
2023-04-02T14:04:13.789Z,2.55
2023-04-02T14:08:02.036Z,2.67
2023-04-02T14:11:26.364Z,2.83
2023-04-02T14:16:01.148Z,2.93
2023-04-02T14:19:42.599Z,2.79
2023-04-02T14:23:31.693Z,2.70
2023-04-02T14:27:19.357Z,2.70
2023-04-02T14:31:06.997Z,2.65
2023-04-02T14:34:46.993Z,2.61
2023-04-02T14:38:40.516Z,2.53
2023-04-02T14:42:14.160Z,2.65
2023-04-02T14:46:05.150Z,2.65
2023-04-02T14:49:53.968Z,2.61
2023-04-02T14:53:51.972Z,2.61
2023-04-02T14:57:40.570Z,2.62
2023-04-02T15:01:14.092Z,2.61
2023-04-02T15:04:53.326Z,2.52
2023-04-02T15:08:36.138Z,2.43
2023-04-02T15:12:12.578Z,2.37
2023-04-02T15:15:47.588Z,2.34
2023-04-02T15:19:18.193Z,2.25
2023-04-02T15:23:28.512Z,2.23
2023-04-02T15:27:43.280Z,2.20
2023-04-02T15:31:15.918Z,2.15
2023-04-02T15:35:05.245Z,2.16
2023-04-02T15:38:37.958Z,2.14
2023-04-02T15:42:29.891Z,2.04
2023-04-02T15:46:09.237Z,1.94
2023-04-02T15:50:07.091Z,1.87
2023-04-02T15:53:49.434Z,1.84
2023-04-02T15:58:01.572Z,1.78
2023-04-02T16:01:39.049Z,1.65
2023-04-02T16:05:53.551Z,1.62
2023-04-02T16:09:23.298Z,1.62
2023-04-02T16:12:56.296Z,1.60
2023-04-02T16:16:34.233Z,1.55
2023-04-02T16:20:18.374Z,1.50
2023-04-02T16:23:46.862Z,1.47
2023-04-02T16:27:40.525Z,1.48
2023-04-02T16:31:28.473Z,1.47
2023-04-02T16:39:49.063Z,1.51
2023-04-02T16:43:33.990Z,1.52
2023-04-02T16:47:49.338Z,1.54
2023-04-02T16:51:50.908Z,1.56
2023-04-02T16:56:01.635Z,1.58
2023-04-02T16:59:49.150Z,1.61
2023-04-02T17:04:00.978Z,1.61
2023-04-02T17:07:46.956Z,1.58
2023-04-02T17:11:17.896Z,1.61
2023-04-02T17:14:54.720Z,1.60
2023-04-02T17:18:26.552Z,1.58
2023-04-02T17:22:24.121Z,1.56
2023-04-02T17:25:53.778Z,1.54
2023-04-02T17:29:47.384Z,1.52
2023-04-02T17:33:16.819Z,1.47
2023-04-02T17:37:11.215Z,1.42
2023-04-02T17:41:07.363Z,1.38
2023-04-02T17:44:33.123Z,1.37
2023-04-02T17:48:44.038Z,1.39
2023-04-02T17:52:33.966Z,1.32
2023-04-02T17:56:17.640Z,1.25
2023-04-02T17:59:49.733Z,1.19
2023-04-02T18:03:28.008Z,1.15
2023-04-02T18:07:37.541Z,1.15
2023-04-02T18:11:47.325Z,1.13
2023-04-02T18:15:36.699Z,1.08
2023-04-02T18:19:13.656Z,1.07
2023-04-02T18:23:27.078Z,1.05
2023-04-02T18:27:29.091Z,1.05
2023-04-02T18:31:24.033Z,1.06
2023-04-02T18:35:34.695Z,1.06
2023-04-02T18:39:13.986Z,1.06
2023-04-02T18:43:06.040Z,1.06
2023-04-02T18:46:47.940Z,1.05
2023-04-02T18:50:38.608Z,1.04
2023-04-02T18:54:10.542Z,1.03
2023-04-02T18:57:42.690Z,1.01
2023-04-02T19:01:23.955Z,1.00
2023-04-02T19:05:07.297Z,1.00
2023-04-02T19:08:41.663Z,0.96
2023-04-02T19:12:19.321Z,0.96
2023-04-02T19:16:15.474Z,0.94
2023-04-02T19:20:24.569Z,0.93
2023-04-02T19:24:02.924Z,0.90
2023-04-02T19:27:33.795Z,0.88
2023-04-02T19:31:43.199Z,0.87
2023-04-02T19:35:23.243Z,0.82
2023-04-02T19:39:46.070Z,0.79
2023-04-02T19:43:10.725Z,0.78
2023-04-02T19:47:05.480Z,0.79
2023-04-02T19:50:29.156Z,0.78
2023-04-02T19:54:25.091Z,0.77
2023-04-02T19:57:52.713Z,0.79
2023-04-02T20:01:43.878Z,0.80
2023-04-02T20:05:07.067Z,0.80
2023-04-02T20:09:06.560Z,0.83
2023-04-02T20:12:30.247Z,0.81
2023-04-02T20:16:07.929Z,0.79
2023-04-02T20:19:45.878Z,0.78
2023-04-02T20:23:23.172Z,0.79
2023-04-02T20:27:00.057Z,0.78
2023-04-02T20:30:37.888Z,0.78
2023-04-02T20:34:15.550Z,0.77
2023-04-02T20:37:52.952Z,0.72
2023-04-02T20:41:31.707Z,0.65
2023-04-02T20:45:09.381Z,0.59
2023-04-02T20:49:04.818Z,0.55
2023-04-02T20:52:46.288Z,0.49
2023-04-02T20:56:13.926Z,0.44
2023-04-02T20:59:46.598Z,0.37
2023-04-02T21:03:43.534Z,0.28
2023-04-02T21:07:08.186Z,0.24
2023-04-02T21:10:44.582Z,0.20
2023-04-02T21:14:22.043Z,0.19
2023-04-02T21:18:19.054Z,0.18
2023-04-02T21:21:44.964Z,0.17
2023-04-02T21:25:20.543Z,0.14
2023-04-02T21:29:20.479Z,0.11
2023-04-02T21:33:04.454Z,0.11
2023-04-02T21:36:33.114Z,0.07
2023-04-02T21:40:23.719Z,0.03
2023-04-02T21:44:06.559Z,0.03
2023-04-02T21:47:30.447Z,0.00
2023-04-02T21:51:33.675Z,0.02
2023-04-02T21:54:57.551Z,-0.01
2023-04-02T21:58:35.772Z,0.01
2023-04-02T22:02:13.388Z,0.00
2023-04-02T22:06:00.848Z,-0.05
2023-04-02T22:09:29.611Z,-0.12
2023-04-02T22:13:06.631Z,-0.19
2023-04-02T22:16:43.871Z,-0.21
2023-04-02T22:20:40.504Z,-0.20
2023-04-02T22:24:05.258Z,-0.17
2023-04-02T22:27:40.767Z,-0.13
2023-04-02T22:31:21.530Z,-0.11
2023-04-02T22:34:57.238Z,-0.07
2023-04-02T22:38:52.857Z,-0.05
2023-04-02T22:42:34.610Z,-0.02
2023-04-02T22:45:58.464Z,0.00
2023-04-02T22:49:34.842Z,0.02
2023-04-02T22:53:15.262Z,0.03
2023-04-02T22:56:50.117Z,0.04
2023-04-02T23:00:47.876Z,0.05
2023-04-02T23:04:29.147Z,0.05
2023-04-02T23:07:51.233Z,0.06
2023-04-02T23:11:28.967Z,0.05
2023-04-02T23:15:07.230Z,0.04
2023-04-02T23:18:48.008Z,0.02
2023-04-02T23:22:22.240Z,-0.00
2023-04-02T23:26:22.946Z,-0.05
2023-04-02T23:29:45.619Z,-0.11
2023-04-02T23:33:23.090Z,-0.19
2023-04-02T23:37:00.912Z,-0.24
2023-04-02T23:40:38.474Z,-0.29
2023-04-02T23:44:15.984Z,-0.33
2023-04-02T23:47:54.070Z,-0.37
2023-04-02T23:51:32.377Z,-0.40
2023-04-02T23:55:28.162Z,-0.41
2023-04-02T23:58:51.027Z,-0.40
